Time;durP1;ratioP1;P1;durP2;ratioP2;P2;SDS_P1;SDS_P2;PMS_P1;PMS_P2;Temp;Humidity;BMP_temperature;BMP_pressure;BME280_temperature;BME280_humidity;BME280_pressure;Samples;Min_cycle;Max_cycle;Signal;HPM_P1;HPM_P2
2021/10/12 00:01:07;;;;;;;5.53;1.80;;;;;;;-145.18;0.00;102943.50;5079111;28;20016;-71
2021/10/12 00:03:33;;;;;;;8.57;1.87;;;;;;;-145.18;0.00;102943.50;5075812;28;20565;-71
2021/10/12 00:05:59;;;;;;;5.53;1.97;;;;;;;-145.18;0.00;102943.50;5079090;28;20056;-71
2021/10/12 00:08:25;;;;;;;6.83;1.67;;;;;;;-145.18;0.00;102943.50;5075879;28;20048;-71
2021/10/12 00:10:50;;;;;;;5.53;1.80;;;;;;;-145.18;0.00;102943.50;5070254;28;20135;-71
2021/10/12 00:13:17;;;;;;;6.70;1.57;;;;;;;-145.18;0.00;102943.50;5074185;28;20032;-71
2021/10/12 00:15:42;;;;;;;4.70;1.43;;;;;;;-145.18;0.00;102943.50;5077152;28;20020;-71
2021/10/12 00:18:08;;;;;;;6.40;1.53;;;;;;;-145.18;0.00;102943.50;5082974;28;20028;-72
2021/10/12 00:20:34;;;;;;;6.87;1.30;;;;;;;-145.18;0.00;102943.50;5066822;28;20111;-71
2021/10/12 00:22:59;;;;;;;3.60;1.40;;;;;;;-145.18;0.00;102943.50;5079021;28;20222;-71
2021/10/12 00:25:25;;;;;;;7.67;1.80;;;;;;;-145.18;0.00;102943.50;5068337;28;20207;-72
2021/10/12 00:27:50;;;;;;;5.47;1.60;;;;;;;-145.18;0.00;102943.50;5077552;28;20576;-72
2021/10/12 00:30:19;;;;;;;4.50;1.47;;;;;;;-145.18;0.00;102943.50;5077352;28;20325;-72
2021/10/12 00:32:44;;;;;;;5.87;1.63;;;;;;;-145.18;0.00;102943.50;5073501;28;20019;-71
2021/10/12 00:35:10;;;;;;;8.43;1.60;;;;;;;-145.18;0.00;102943.50;5070620;28;20107;-72
2021/10/12 00:37:38;;;;;;;6.10;1.53;;;;;;;-145.18;0.00;102943.50;5078642;28;20039;-71
2021/10/12 00:40:05;;;;;;;8.67;1.50;;;;;;;-145.18;0.00;102943.50;5062886;28;20028;-71
2021/10/12 00:42:30;;;;;;;6.33;2.13;;;;;;;-145.18;0.00;102943.50;5061901;28;20031;-72
2021/10/12 00:44:57;;;;;;;3.47;1.53;;;;;;;-145.18;0.00;102943.50;5070607;28;20024;-72
2021/10/12 00:47:22;;;;;;;10.97;2.50;;;;;;;-145.18;0.00;102943.50;5078861;28;20027;-71
2021/10/12 00:49:48;;;;;;;7.37;1.33;;;;;;;-145.18;0.00;102943.50;5069871;28;20028;-72
2021/10/12 00:52:13;;;;;;;5.00;1.60;;;;;;;-145.18;0.00;102943.50;5076911;28;20097;-71
2021/10/12 00:54:38;;;;;;;3.17;1.40;;;;;;;-145.18;0.00;102943.50;5076453;28;20036;-72
2021/10/12 00:57:06;;;;;;;3.47;1.30;;;;;;;-145.18;0.00;102943.50;5078335;28;20024;-72
2021/10/12 00:59:31;;;;;;;4.73;1.70;;;;;;;-145.18;0.00;102943.50;5069187;28;20572;-72
2021/10/12 01:01:57;;;;;;;4.93;1.33;;;;;;;-145.18;0.00;102943.50;5092063;22;20056;-68
2021/10/12 01:04:22;;;;;;;5.77;1.40;;;;;;;-145.18;0.00;102943.50;5071026;28;20138;-68
2021/10/12 01:06:48;;;;;;;6.40;1.43;;;;;;;-145.18;0.00;102943.50;5058993;28;20070;-68
2021/10/12 01:09:13;;;;;;;4.63;1.30;;;;;;;-145.18;0.00;102943.50;5067429;28;20061;-69
2021/10/12 01:11:39;;;;;;;5.47;1.37;;;;;;;-145.18;0.00;102943.50;5078666;28;20103;-69
2021/10/12 01:14:05;;;;;;;4.40;1.10;;;;;;;-145.18;0.00;102943.50;5078696;28;20051;-69
2021/10/12 01:16:30;;;;;;;5.93;1.90;;;;;;;-145.18;0.00;102943.50;5062953;28;20036;-69
2021/10/12 01:19:01;;;;;;;4.70;1.23;;;;;;;-145.18;0.00;102943.50;5066809;28;20298;-69
2021/10/12 01:21:29;;;;;;;3.73;1.57;;;;;;;-145.18;0.00;102943.50;5076718;28;20062;-69
2021/10/12 01:23:55;;;;;;;4.73;1.10;;;;;;;-145.18;0.00;102943.50;5078596;28;20268;-68
2021/10/12 01:26:21;;;;;;;3.67;1.30;;;;;;;-145.18;0.00;102943.50;5076952;28;20028;-69
2021/10/12 01:28:47;;;;;;;4.53;1.03;;;;;;;-145.18;0.00;102943.50;5078091;28;20146;-68
2021/10/12 01:31:18;;;;;;;6.73;1.67;;;;;;;-145.18;0.00;102943.50;5079986;28;20110;-69
2021/10/12 01:33:44;;;;;;;4.97;1.33;;;;;;;-145.18;0.00;102943.50;5077012;28;20028;-69
2021/10/12 01:36:09;;;;;;;2.47;1.17;;;;;;;-145.18;0.00;102943.50;5082082;28;20031;-69
2021/10/12 01:38:35;;;;;;;2.93;1.10;;;;;;;-145.18;0.00;102943.50;5075583;28;20228;-69
2021/10/12 01:41:01;;;;;;;2.37;1.07;;;;;;;-145.18;0.00;102943.50;5081805;28;20427;-69
2021/10/12 01:43:27;;;;;;;6.13;1.47;;;;;;;-145.18;0.00;102943.50;5081844;28;20436;-69
2021/10/12 01:45:58;;;;;;;6.00;1.40;;;;;;;-145.18;0.00;102943.50;5081833;28;20304;-69
2021/10/12 01:48:23;;;;;;;3.17;1.00;;;;;;;-145.18;0.00;102943.50;5081589;28;20040;-68
2021/10/12 01:50:49;;;;;;;6.03;1.27;;;;;;;-145.18;0.00;102943.50;5079712;28;20043;-68
2021/10/12 01:53:14;;;;;;;5.07;1.50;;;;;;;-145.18;0.00;102943.50;5081791;28;20035;-69
2021/10/12 01:55:40;;;;;;;3.17;1.40;;;;;;;-145.18;0.00;102943.50;5080330;28;20040;-69
2021/10/12 01:58:05;;;;;;;6.93;1.40;;;;;;;-145.18;0.00;102943.50;5075807;28;20517;-69
2021/10/12 02:00:31;;;;;;;3.47;1.10;;;;;;;-145.18;0.00;102943.50;5081567;28;20040;-68
2021/10/12 02:02:57;;;;;;;5.47;1.20;;;;;;;-145.18;0.00;102943.50;5081295;28;20497;-69
2021/10/12 02:05:22;;;;;;;5.03;1.63;;;;;;;-145.18;0.00;102943.50;5076912;28;20035;-69
2021/10/12 02:07:47;;;;;;;5.43;1.40;;;;;;;-145.18;0.00;102943.50;5072681;28;20265;-68
2021/10/12 02:10:13;;;;;;;6.20;1.10;;;;;;;-145.18;0.00;102943.50;5082915;28;20020;-68
2021/10/12 02:12:38;;;;;;;5.43;1.43;;;;;;;-145.18;0.00;102943.50;5082534;28;20787;-68
2021/10/12 02:15:05;;;;;;;3.63;1.30;;;;;;;-145.18;0.00;102943.50;5082019;28;20663;-69
2021/10/12 02:17:31;;;;;;;5.70;1.10;;;;;;;-145.18;0.00;102943.50;5081968;28;20266;-68
2021/10/12 02:19:56;;;;;;;4.20;1.20;;;;;;;-145.18;0.00;102943.50;5082321;28;20051;-68
2021/10/12 02:22:22;;;;;;;4.00;1.40;;;;;;;-145.18;0.00;102943.50;5077433;28;20055;-68
2021/10/12 02:24:47;;;;;;;5.57;1.23;;;;;;;-145.18;0.00;102943.50;5081684;28;20024;-68
2021/10/12 02:27:13;;;;;;;3.57;0.80;;;;;;;-145.18;0.00;102943.50;5080819;28;20127;-68
2021/10/12 02:29:38;;;;;;;9.53;1.47;;;;;;;-145.18;0.00;102943.50;5080581;28;20036;-68
2021/10/12 02:32:04;;;;;;;1.70;0.90;;;;;;;-145.18;0.00;102943.50;5082158;28;20040;-68
2021/10/12 02:34:30;;;;;;;5.33;1.47;;;;;;;-145.18;0.00;102943.50;5082452;28;20032;-69
2021/10/12 02:36:55;;;;;;;3.07;1.00;;;;;;;-145.18;0.00;102943.50;5081482;28;20603;-68
2021/10/12 02:39:21;;;;;;;6.07;1.57;;;;;;;-145.18;0.00;102943.50;5081681;28;20047;-68
2021/10/12 02:41:46;;;;;;;3.20;1.20;;;;;;;-145.18;0.00;102943.50;5079118;28;20096;-68
2021/10/12 02:44:12;;;;;;;6.53;1.00;;;;;;;-145.18;0.00;102943.50;5072340;28;20328;-68
2021/10/12 02:46:37;;;;;;;5.43;0.97;;;;;;;-145.18;0.00;102943.50;5070192;28;20380;-68
2021/10/12 02:49:03;;;;;;;4.47;1.20;;;;;;;-145.18;0.00;102943.50;5081363;28;20217;-68
2021/10/12 02:51:28;;;;;;;5.37;1.40;;;;;;;-145.18;0.00;102943.50;5081413;28;20046;-68
2021/10/12 02:53:54;;;;;;;6.00;1.40;;;;;;;-145.18;0.00;102943.50;5077802;28;20429;-68
2021/10/12 02:56:19;;;;;;;5.10;1.20;;;;;;;-145.18;0.00;102943.50;5081394;28;20117;-68
2021/10/12 02:58:45;;;;;;;5.33;1.10;;;;;;;-145.18;0.00;102943.50;5074824;28;20169;-68
2021/10/12 03:01:10;;;;;;;5.30;1.87;;;;;;;-145.18;0.00;102943.50;5076824;28;20594;-68
2021/10/12 03:03:35;;;;;;;4.40;1.83;;;;;;;-145.18;0.00;102943.50;5074699;28;20052;-68
2021/10/12 03:06:01;;;;;;;3.27;1.30;;;;;;;-145.18;0.00;102943.50;5078127;28;20036;-68
2021/10/12 03:08:26;;;;;;;8.07;1.30;;;;;;;-145.18;0.00;102943.50;5080736;28;20177;-68
2021/10/12 03:10:52;;;;;;;4.63;1.40;;;;;;;-145.18;0.00;102943.50;5072914;28;20024;-68
2021/10/12 03:13:18;;;;;;;8.43;1.50;;;;;;;-145.18;0.00;102943.50;5070779;28;20033;-68
2021/10/12 03:15:43;;;;;;;4.00;1.23;;;;;;;-145.18;0.00;102943.50;5077720;28;20027;-68
2021/10/12 03:18:09;;;;;;;8.60;2.50;;;;;;;-145.18;0.00;102943.50;5080747;28;20028;-68
2021/10/12 03:20:35;;;;;;;4.80;1.60;;;;;;;-145.18;0.00;102943.50;5075682;28;20060;-68
2021/10/12 03:23:01;;;;;;;5.60;1.73;;;;;;;-145.18;0.00;102943.50;5073698;28;20324;-68
2021/10/12 03:25:27;;;;;;;7.23;1.40;;;;;;;-145.18;0.00;102943.50;5078987;28;20110;-68
2021/10/12 03:27:52;;;;;;;9.73;1.90;;;;;;;-145.18;0.00;102943.50;5080509;28;20103;-68
2021/10/12 03:30:18;;;;;;;6.77;1.50;;;;;;;-145.18;0.00;102943.50;5079708;28;20588;-68
2021/10/12 03:32:43;;;;;;;5.17;1.60;;;;;;;-145.18;0.00;102943.50;5076157;28;20063;-68
2021/10/12 03:35:09;;;;;;;10.10;1.80;;;;;;;-145.18;0.00;102943.50;5076437;28;20164;-68
2021/10/12 03:37:35;;;;;;;7.37;1.80;;;;;;;-145.18;0.00;102943.50;5080513;28;20089;-68
2021/10/12 03:40:01;;;;;;;6.37;1.87;;;;;;;-145.18;0.00;102943.50;5075486;28;20024;-68
2021/10/12 03:42:26;;;;;;;5.13;1.87;;;;;;;-145.18;0.00;102943.50;5075552;28;20192;-68
2021/10/12 03:44:52;;;;;;;6.03;1.40;;;;;;;-145.18;0.00;102943.50;5074193;28;20123;-68
2021/10/12 03:47:18;;;;;;;8.00;1.90;;;;;;;-145.18;0.00;102943.50;5079567;28;20420;-68
2021/10/12 03:49:43;;;;;;;8.73;2.00;;;;;;;-145.18;0.00;102943.50;5077097;28;20077;-68
2021/10/12 03:52:08;;;;;;;4.20;1.50;;;;;;;-145.18;0.00;102943.50;5079974;28;20028;-68
2021/10/12 03:54:34;;;;;;;5.87;1.77;;;;;;;-145.18;0.00;102943.50;5073106;28;20554;-68
2021/10/12 03:56:59;;;;;;;5.63;2.00;;;;;;;-145.18;0.00;102943.50;5077882;28;20056;-67
2021/10/12 03:59:25;;;;;;;6.20;1.60;;;;;;;-145.18;0.00;102943.50;5070484;28;20249;-68
2021/10/12 04:01:51;;;;;;;5.97;1.83;;;;;;;-145.18;0.00;102943.50;5078135;28;20220;-68
2021/10/12 04:04:19;;;;;;;8.47;1.90;;;;;;;-145.18;0.00;102943.50;5079796;28;20044;-68
2021/10/12 04:06:45;;;;;;;5.17;2.00;;;;;;;-145.18;0.00;102943.50;5078373;28;20480;-68
2021/10/12 04:09:10;;;;;;;8.17;1.90;;;;;;;-145.18;0.00;102943.50;5078750;28;20132;-68
2021/10/12 04:11:36;;;;;;;6.40;2.23;;;;;;;-145.18;0.00;102943.50;5077761;28;20068;-68
2021/10/12 04:14:01;;;;;;;6.47;2.07;;;;;;;-145.18;0.00;102943.50;5072676;28;20050;-68
2021/10/12 04:16:27;;;;;;;9.13;1.90;;;;;;;-145.18;0.00;102943.50;5079833;28;20565;-68
2021/10/12 04:18:54;;;;;;;8.03;2.30;;;;;;;-145.18;0.00;102943.50;5076118;28;20218;-69
2021/10/12 04:21:20;;;;;;;7.33;2.00;;;;;;;-145.18;0.00;102943.50;5073259;28;20248;-69
2021/10/12 04:23:45;;;;;;;8.60;3.50;;;;;;;-145.18;0.00;102943.50;5071078;28;20363;-69
2021/10/12 04:26:14;;;;;;;8.97;2.07;;;;;;;-145.18;0.00;102943.50;5065141;28;20028;-69
2021/10/12 04:28:39;;;;;;;5.50;2.20;;;;;;;-145.18;0.00;102943.50;5067941;28;20030;-68
2021/10/12 04:31:05;;;;;;;8.47;2.13;;;;;;;-145.18;0.00;102943.50;5075702;28;20020;-68
2021/10/12 04:33:30;;;;;;;7.83;2.10;;;;;;;-145.18;0.00;102943.50;5079819;28;20040;-69
2021/10/12 04:35:56;;;;;;;5.70;2.00;;;;;;;-145.18;0.00;102943.50;5077924;28;20093;-69
2021/10/12 04:38:21;;;;;;;5.87;2.27;;;;;;;-145.18;0.00;102943.50;5074245;28;20013;-69
2021/10/12 04:40:47;;;;;;;7.67;2.20;;;;;;;-145.18;0.00;102943.50;5075305;28;20032;-69
2021/10/12 04:43:13;;;;;;;5.77;2.47;;;;;;;-145.18;0.00;102943.50;5078481;28;20031;-69
2021/10/12 04:45:39;;;;;;;7.33;2.50;;;;;;;-145.18;0.00;102943.50;5077457;28;20028;-69
2021/10/12 04:48:05;;;;;;;7.10;2.50;;;;;;;-145.18;0.00;102943.50;5079197;28;20036;-69
2021/10/12 04:50:30;;;;;;;9.77;2.17;;;;;;;-145.18;0.00;102943.50;5079825;28;20028;-69
2021/10/12 04:52:56;;;;;;;9.30;2.67;;;;;;;-145.18;0.00;102943.50;5079649;28;20251;-69
2021/10/12 04:55:21;;;;;;;7.47;2.00;;;;;;;-145.18;0.00;102943.50;5074489;28;20180;-68
2021/10/12 04:57:47;;;;;;;7.23;2.37;;;;;;;-145.18;0.00;102943.50;5067177;28;20031;-69
2021/10/12 05:00:15;;;;;;;8.77;2.30;;;;;;;-145.18;0.00;102943.50;5076554;28;20393;-69
2021/10/12 05:02:44;;;;;;;5.90;2.10;;;;;;;-145.18;0.00;102943.50;5077663;28;20648;-68
2021/10/12 05:05:09;;;;;;;4.57;2.40;;;;;;;-145.18;0.00;102943.50;5077651;28;20093;-68
2021/10/12 05:07:38;;;;;;;7.27;2.10;;;;;;;-145.18;0.00;102943.50;5083223;28;20211;-69
2021/10/12 05:10:04;;;;;;;9.53;1.60;;;;;;;-145.18;0.00;102943.50;5083347;28;20477;-68
2021/10/12 05:12:30;;;;;;;7.33;1.73;;;;;;;-145.18;0.00;102943.50;5083131;28;20034;-68
2021/10/12 05:14:55;;;;;;;7.63;3.07;;;;;;;-145.18;0.00;102943.50;5083169;28;20083;-69
2021/10/12 05:17:46;;;;;;;5.87;2.00;;;;;;;-145.18;0.00;102943.50;5083013;28;20024;-69
2021/10/12 05:20:07;;;;;;;5.60;2.00;;;;;;;-145.18;0.00;102943.50;5072520;28;20054;-69
2021/10/12 05:22:33;;;;;;;9.17;2.47;;;;;;;-145.18;0.00;102943.50;5079330;28;20024;-69
2021/10/12 05:24:59;;;;;;;5.80;2.37;;;;;;;-145.18;0.00;102943.50;5082615;28;20232;-69
2021/10/12 05:27:24;;;;;;;5.93;2.47;;;;;;;-145.18;0.00;102943.50;5082527;28;20563;-68
2021/10/12 05:29:50;;;;;;;8.80;2.07;;;;;;;-145.18;0.00;102943.50;5082115;28;20028;-69
2021/10/12 05:32:15;;;;;;;8.73;2.13;;;;;;;-145.18;0.00;102943.50;5082141;28;20080;-68
2021/10/12 05:34:41;;;;;;;7.40;2.17;;;;;;;-145.18;0.00;102943.50;5082526;28;20117;-69
2021/10/12 05:37:07;;;;;;;4.77;1.63;;;;;;;-145.18;0.00;102943.50;5082746;28;20051;-68
2021/10/12 05:39:32;;;;;;;9.23;2.33;;;;;;;-145.18;0.00;102943.50;5082109;28;20504;-69
2021/10/12 05:41:58;;;;;;;4.70;1.60;;;;;;;-145.18;0.00;102943.50;5082084;28;20081;-69
2021/10/12 05:44:24;;;;;;;5.90;1.60;;;;;;;-145.18;0.00;102943.50;5082267;28;20251;-68
2021/10/12 05:46:49;;;;;;;7.50;1.90;;;;;;;-145.18;0.00;102943.50;5082229;28;20012;-68
2021/10/12 05:49:15;;;;;;;7.73;2.00;;;;;;;-145.18;0.00;102943.50;5081759;28;20038;-68
2021/10/12 05:51:44;;;;;;;6.13;1.60;;;;;;;-145.18;0.00;102943.50;5082965;28;20136;-69
2021/10/12 05:54:10;;;;;;;5.40;1.70;;;;;;;-145.18;0.00;102943.50;5082330;28;20089;-69
2021/10/12 05:56:55;;;;;;;8.30;2.40;;;;;;;-145.18;0.00;102943.50;5082679;28;20023;-69
2021/10/12 05:59:20;;;;;;;10.80;2.03;;;;;;;-145.18;0.00;102943.50;5082212;28;20028;-68
2021/10/12 06:01:46;;;;;;;4.60;1.50;;;;;;;-145.18;0.00;102943.50;5081576;28;20383;-68
2021/10/12 06:04:11;;;;;;;5.43;1.70;;;;;;;-145.18;0.00;102943.50;5082068;28;20042;-69
2021/10/12 06:06:37;;;;;;;10.97;2.10;;;;;;;-145.18;0.00;102943.50;5082200;28;20036;-69
2021/10/12 06:09:03;;;;;;;4.80;1.73;;;;;;;-145.18;0.00;102943.50;5081692;28;20030;-69
2021/10/12 06:11:29;;;;;;;7.60;2.40;;;;;;;-145.18;0.00;102943.50;5081864;28;20073;-69
2021/10/12 06:13:56;;;;;;;5.17;1.90;;;;;;;-145.18;0.00;102943.50;5081622;28;20028;-69
2021/10/12 06:16:21;;;;;;;8.37;2.27;;;;;;;-145.18;0.00;102943.50;5081958;28;20024;-68
2021/10/12 06:18:47;;;;;;;9.30;2.10;;;;;;;-145.18;0.00;102943.50;5081089;28;20381;-68
2021/10/12 06:21:13;;;;;;;5.63;2.03;;;;;;;-145.18;0.00;102943.50;5081400;28;20116;-68
2021/10/12 06:23:39;;;;;;;5.20;2.00;;;;;;;-145.18;0.00;102943.50;5081667;28;20028;-68
2021/10/12 06:26:05;;;;;;;6.03;1.80;;;;;;;-145.18;0.00;102943.50;5081542;28;20028;-68
2021/10/12 06:28:31;;;;;;;8.47;2.00;;;;;;;-145.18;0.00;102943.50;5081383;28;20062;-69
2021/10/12 06:30:56;;;;;;;9.03;2.07;;;;;;;-145.18;0.00;102943.50;5081391;28;20285;-69
2021/10/12 06:33:22;;;;;;;7.80;2.20;;;;;;;-145.18;0.00;102943.50;5081337;28;20255;-69
2021/10/12 06:35:47;;;;;;;9.47;2.30;;;;;;;-145.18;0.00;102943.50;5081674;28;20020;-69
2021/10/12 06:38:13;;;;;;;5.00;1.90;;;;;;;-145.18;0.00;102943.50;5081573;28;20206;-69
2021/10/12 06:40:39;;;;;;;9.00;2.03;;;;;;;-145.18;0.00;102943.50;5082228;28;20032;-69
2021/10/12 06:43:04;;;;;;;7.33;2.20;;;;;;;-145.18;0.00;102943.50;5082355;28;20528;-69
2021/10/12 06:45:30;;;;;;;11.43;1.93;;;;;;;-145.18;0.00;102943.50;5082298;28;20413;-69
2021/10/12 06:47:56;;;;;;;8.03;1.60;;;;;;;-145.18;0.00;102943.50;5082571;28;20020;-69
2021/10/12 06:50:23;;;;;;;6.60;1.60;;;;;;;-145.18;0.00;102943.50;5082687;28;20553;-69
2021/10/12 06:52:49;;;;;;;3.97;1.50;;;;;;;-145.18;0.00;102943.50;5082439;28;20046;-69
2021/10/12 06:55:15;;;;;;;3.53;1.10;;;;;;;-145.18;0.00;102943.50;5075979;28;20437;-69
2021/10/12 06:57:41;;;;;;;4.17;1.07;;;;;;;-145.18;0.00;102943.50;5075341;28;20276;-69
2021/10/12 07:00:13;;;;;;;2.80;1.07;;;;;;;-145.18;0.00;102943.50;5082155;28;20325;-69
2021/10/12 07:02:43;;;;;;;2.50;1.30;;;;;;;-145.18;0.00;102943.50;5082095;28;20039;-69
2021/10/12 07:05:09;;;;;;;4.40;0.90;;;;;;;-145.18;0.00;102943.50;5075763;28;20044;-69
2021/10/12 07:07:34;;;;;;;4.50;1.40;;;;;;;-145.18;0.00;102943.50;5075764;28;20213;-69
2021/10/12 07:10:00;;;;;;;5.00;1.17;;;;;;;-145.18;0.00;102943.50;5081708;28;20024;-69
2021/10/12 07:12:27;;;;;;;5.60;1.00;;;;;;;-145.18;0.00;102943.50;5081319;28;20428;-69
2021/10/12 07:14:52;;;;;;;3.53;0.80;;;;;;;-145.18;0.00;102943.50;5081518;28;20032;-69
2021/10/12 07:17:18;;;;;;;2.90;0.80;;;;;;;-145.18;0.00;102943.50;5081857;28;20401;-69
2021/10/12 07:19:44;;;;;;;4.50;1.00;;;;;;;-145.18;0.00;102943.50;5074091;28;20399;-69
2021/10/12 07:22:09;;;;;;;2.60;0.80;;;;;;;-145.18;0.00;102943.50;5075585;28;20039;-69
2021/10/12 07:24:35;;;;;;;4.50;1.10;;;;;;;-145.18;0.00;102943.50;5081605;28;20097;-69
2021/10/12 07:27:00;;;;;;;5.43;1.40;;;;;;;-145.18;0.00;102943.50;5081871;28;20052;-69
2021/10/12 07:29:26;;;;;;;4.13;1.40;;;;;;;-145.18;0.00;102943.50;5074131;28;20086;-69
2021/10/12 07:31:51;;;;;;;4.17;1.20;;;;;;;-145.18;0.00;102943.50;5074778;28;20231;-69
2021/10/12 07:34:17;;;;;;;6.40;1.40;;;;;;;-145.18;0.00;102943.50;5081600;28;20172;-69
2021/10/12 07:36:42;;;;;;;5.17;1.63;;;;;;;-145.18;0.00;102943.50;5081832;28;20027;-69
2021/10/12 07:39:08;;;;;;;4.10;1.10;;;;;;;-145.18;0.00;102943.50;5081243;28;20122;-69
2021/10/12 07:41:35;;;;;;;5.80;1.73;;;;;;;-145.18;0.00;102943.50;5081378;28;20036;-69
2021/10/12 07:44:00;;;;;;;4.37;1.30;;;;;;;-145.18;0.00;102943.50;5081440;28;20123;-69
2021/10/12 07:46:26;;;;;;;4.13;1.23;;;;;;;-145.18;0.00;102943.50;5081566;28;20114;-69
2021/10/12 07:48:53;;;;;;;3.17;1.10;;;;;;;-145.18;0.00;102943.50;5081397;28;20356;-69
2021/10/12 07:51:20;;;;;;;2.87;1.20;;;;;;;-145.18;0.00;102943.50;5081722;28;20116;-69
2021/10/12 07:53:45;;;;;;;5.40;1.37;;;;;;;-145.18;0.00;102943.50;5081120;28;20493;-69
2021/10/12 07:56:17;;;;;;;7.03;1.37;;;;;;;-145.18;0.00;102943.50;5081154;28;20034;-69
2021/10/12 07:58:43;;;;;;;3.15;1.13;;;;;;;-145.18;0.00;102943.50;5081121;28;20092;-69
2021/10/12 08:01:09;;;;;;;3.43;0.93;;;;;;;-145.18;0.00;102943.50;5081350;28;20027;-69
2021/10/12 08:03:35;;;;;;;4.17;0.83;;;;;;;-145.18;0.00;102943.50;5080184;28;20610;-69
2021/10/12 08:06:00;;;;;;;10.37;1.77;;;;;;;-145.18;0.00;102943.50;5081164;28;20032;-69
2021/10/12 08:08:26;;;;;;;4.70;1.20;;;;;;;-145.18;0.00;102943.50;5080724;28;20020;-69
2021/10/12 08:10:52;;;;;;;3.50;0.87;;;;;;;-145.18;0.00;102943.50;5080638;28;20028;-69
2021/10/12 08:13:20;;;;;;;6.10;0.80;;;;;;;-145.18;0.00;102943.50;5080268;28;20015;-69
2021/10/12 08:15:51;;;;;;;7.60;1.10;;;;;;;-145.18;0.00;102943.50;5080209;28;20521;-69
2021/10/12 08:18:18;;;;;;;1.40;0.63;;;;;;;-145.18;0.00;102943.50;5080093;28;20016;-70
2021/10/12 08:20:44;;;;;;;1.93;0.70;;;;;;;-145.18;0.00;102943.50;5080906;28;20456;-69
2021/10/12 08:23:09;;;;;;;4.63;0.83;;;;;;;-145.18;0.00;102943.50;5080545;28;20598;-69
2021/10/12 08:25:35;;;;;;;4.20;0.80;;;;;;;-145.18;0.00;102943.50;5080238;28;20404;-69
2021/10/12 08:28:00;;;;;;;3.53;0.80;;;;;;;-145.18;0.00;102943.50;5080882;28;20028;-69
2021/10/12 08:30:26;;;;;;;2.70;0.80;;;;;;;-145.18;0.00;102943.50;5080733;28;20039;-69
2021/10/12 08:32:55;;;;;;;2.27;1.00;;;;;;;-145.18;0.00;102943.50;5081204;28;20028;-69
2021/10/12 08:35:20;;;;;;;2.33;0.80;;;;;;;-145.18;0.00;102943.50;5079689;28;20463;-69
2021/10/12 08:37:46;;;;;;;5.13;1.10;;;;;;;-145.18;0.00;102943.50;5082073;28;20155;-68
2021/10/12 08:40:15;;;;;;;3.60;1.00;;;;;;;-145.18;0.00;102943.50;5081406;28;20561;-68
2021/10/12 08:42:47;;;;;;;4.03;1.00;;;;;;;-145.18;0.00;102943.50;5084105;28;20224;-68
2021/10/12 08:45:14;;;;;;;2.97;1.10;;;;;;;-145.18;0.00;102943.50;5083652;28;20182;-68
2021/10/12 08:47:40;;;;;;;2.00;0.80;;;;;;;-145.18;0.00;102943.50;5084191;28;20024;-68
2021/10/12 08:50:09;;;;;;;8.17;1.30;;;;;;;-145.18;0.00;102943.50;5083687;28;20431;-68
2021/10/12 08:52:35;;;;;;;4.90;1.27;;;;;;;-145.18;0.00;102943.50;5084213;28;20185;-68
2021/10/12 08:55:00;;;;;;;3.83;1.47;;;;;;;-145.18;0.00;102943.50;5083779;28;20047;-68
2021/10/12 08:57:38;;;;;;;4.27;1.20;;;;;;;-145.18;0.00;102943.50;5084104;28;20512;-68
2021/10/12 09:00:09;;;;;;;7.63;1.63;;;;;;;-145.18;0.00;102943.50;5083984;28;20146;-68
2021/10/12 09:06:03;;;;;;;5.60;1.57;;;;;;;-145.18;0.00;102943.50;5041130;28;20267;-68
2021/10/12 09:08:35;;;;;;;3.60;1.40;;;;;;;-145.18;0.00;102943.50;5083488;28;20040;-68
2021/10/12 09:11:03;;;;;;;4.95;1.05;;;;;;;-145.18;0.00;102943.50;5083730;28;20254;-68
2021/10/12 09:13:28;;;;;;;2.70;0.80;;;;;;;-145.18;0.00;102943.50;5083444;28;20032;-68
2021/10/12 09:16:11;;;;;;;6.23;1.03;;;;;;;-145.18;0.00;102943.50;5083122;28;20290;-68
2021/10/12 09:18:53;;;;;;;9.40;1.30;;;;;;;-145.18;0.00;102943.50;5083458;28;20304;-68
2021/10/12 09:21:27;;;;;;;4.07;0.90;;;;;;;-145.18;0.00;102943.50;5070506;28;20284;-68
2021/10/12 09:24:23;;;;;;;5.80;0.90;;;;;;;-145.18;0.00;102943.50;5078459;28;20500;-68
2021/10/12 09:27:10;;;;;;;5.47;1.20;;;;;;;-145.18;0.00;102943.50;5082842;28;20046;-68
2021/10/12 09:29:38;;;;;;;4.87;1.90;;;;;;;-145.18;0.00;102943.50;5083515;28;20024;-68
2021/10/12 09:32:06;;;;;;;3.70;0.90;;;;;;;-145.18;0.00;102943.50;5083310;28;20085;-68
2021/10/12 09:34:34;;;;;;;5.70;1.03;;;;;;;-145.18;0.00;102943.50;5083483;28;20028;-68
2021/10/12 09:37:00;;;;;;;7.83;1.83;;;;;;;-145.18;0.00;102943.50;5083206;28;20103;-68
2021/10/12 09:39:42;;;;;;;6.53;1.60;;;;;;;-145.18;0.00;102943.50;5083449;28;20081;-68
2021/10/12 09:42:13;;;;;;;4.30;0.75;;;;;;;-145.18;0.00;102943.50;5083593;28;20076;-68
2021/10/12 09:45:07;;;;;;;5.00;1.27;;;;;;;-145.18;0.00;102943.50;5083024;28;20055;-68
2021/10/12 09:47:39;;;;;;;4.60;0.90;;;;;;;-145.18;0.00;102943.50;5071417;28;20085;-68
2021/10/12 09:50:10;;;;;;;4.38;0.95;;;;;;;-145.18;0.00;102943.50;5082500;28;20031;-68
2021/10/12 09:52:38;;;;;;;5.83;0.70;;;;;;;-145.18;0.00;102943.50;5083057;28;20024;-68
2021/10/12 09:55:05;;;;;;;2.37;0.90;;;;;;;-145.18;0.00;102943.50;5082853;28;20081;-68
2021/10/12 09:57:32;;;;;;;7.53;0.90;;;;;;;-145.18;0.00;102943.50;5083269;28;20355;-68
2021/10/12 09:59:57;;;;;;;3.67;1.00;;;;;;;-145.18;0.00;102943.50;5083440;28;20040;-68
2021/10/12 10:02:25;;;;;;;4.37;0.90;;;;;;;-145.18;0.00;102943.50;5083804;28;20316;-68
2021/10/12 10:04:52;;;;;;;6.60;1.20;;;;;;;-145.18;0.00;102943.50;5083445;28;20048;-68
2021/10/12 10:07:31;;;;;;;4.20;0.70;;;;;;;-145.18;0.00;102943.50;5082439;28;20532;-68
2021/10/12 10:10:00;;;;;;;5.90;1.00;;;;;;;-145.18;0.00;102943.50;5077629;28;20028;-68
2021/10/12 10:12:27;;;;;;;3.27;0.87;;;;;;;-145.18;0.00;102943.50;5083413;28;20031;-68
2021/10/12 10:14:53;;;;;;;4.37;0.70;;;;;;;-145.18;0.00;102943.50;5082235;28;20056;-68
2021/10/12 10:17:20;;;;;;;3.17;0.67;;;;;;;-145.18;0.00;102943.50;5082703;28;20062;-68
2021/10/12 10:19:47;;;;;;;5.27;0.90;;;;;;;-145.18;0.00;102943.50;5076274;28;20287;-68
2021/10/12 10:22:40;;;;;;;5.33;0.70;;;;;;;-145.18;0.00;102943.50;5083223;28;20028;-68
2021/10/12 10:25:35;;;;;;;6.40;0.80;;;;;;;-145.18;0.00;102943.50;5082894;28;20032;-68
2021/10/12 10:28:36;;;;;;;3.50;0.60;;;;;;;-145.18;0.00;102943.50;5082862;28;20028;-68
2021/10/12 10:31:04;;;;;;;2.97;0.93;;;;;;;-145.18;0.00;102943.50;5033475;28;20323;-68
2021/10/12 10:33:34;;;;;;;5.47;0.80;;;;;;;-145.18;0.00;102943.50;5042868;28;20083;-68
2021/10/12 10:36:02;;;;;;;6.63;0.80;;;;;;;-145.18;0.00;102943.50;5046409;28;20079;-68
2021/10/12 10:38:33;;;;;;;4.30;0.90;;;;;;;-145.18;0.00;102943.50;5046185;28;20056;-68
2021/10/12 10:41:25;;;;;;;3.53;0.90;;;;;;;-145.18;0.00;102943.50;5059281;28;20032;-68
2021/10/12 10:43:59;;;;;;;3.87;0.93;;;;;;;-145.18;0.00;102943.50;5050631;28;20044;-68
2021/10/12 10:46:38;;;;;;;8.93;1.20;;;;;;;-145.18;0.00;102943.50;5052193;28;20298;-68
2021/10/12 10:49:25;;;;;;;3.90;1.00;;;;;;;-145.18;0.00;102943.50;5041894;28;20036;-68
2021/10/12 10:52:16;;;;;;;3.40;0.77;;;;;;;-145.18;0.00;102943.50;5037512;28;20506;-68
2021/10/12 10:55:01;;;;;;;5.30;1.07;;;;;;;-145.18;0.00;102943.50;5040516;28;20037;-68
2021/10/12 10:57:26;;;;;;;5.90;0.90;;;;;;;-145.18;0.00;102943.50;5058381;28;20040;-69
2021/10/12 11:00:20;;;;;;;3.27;1.03;;;;;;;-145.18;0.00;102943.50;5044107;28;20041;-69
2021/10/12 11:02:47;;;;;;;4.13;0.70;;;;;;;-145.18;0.00;102943.50;5057711;28;20045;-68
2021/10/12 11:05:39;;;;;;;6.60;1.63;;;;;;;-145.18;0.00;102943.50;5066735;28;20460;-69
2021/10/12 11:08:16;;;;;;;2.28;0.60;;;;;;;-145.18;0.00;102943.50;5082236;28;20031;-68
2021/10/12 11:10:43;;;;;;;3.47;0.60;;;;;;;-145.18;0.00;102943.50;5082034;28;20028;-68
2021/10/12 11:13:08;;;;;;;3.67;0.57;;;;;;;-145.18;0.00;102943.50;5081491;28;20055;-68
2021/10/12 11:15:46;;;;;;;2.33;0.60;;;;;;;-145.18;0.00;102943.50;5081737;28;20165;-68
2021/10/12 11:18:12;;;;;;;1.70;0.60;;;;;;;-145.18;0.00;102943.50;5081250;28;20020;-68
2021/10/12 11:20:45;;;;;;;1.87;0.47;;;;;;;-145.18;0.00;102943.50;5075329;28;20028;-68
2021/10/12 11:23:12;;;;;;;3.93;0.77;;;;;;;-145.18;0.00;102943.50;5081671;28;20173;-68